Observation data for O'Donnell on 12/09/2018      Previous  Date  Next       Current Mesonet Observations  Soil Data  Daily Summary Page  Observations in Plain Language
KOES 090600Z 29006KT M02/M02 A303 RMK A01 T10151016  RH  100%=      5-min Rain = 0
KOES 090605Z 29005KT M02/M02 A303 RMK A01 T10151016  RH  100%=      5-min Rain = 0
KOES 090610Z 30005KT M02/M02 A303 RMK A01 T10151016  RH  100%=      5-min Rain = 0
KOES 090615Z 30005KT M01/M02 A303 RMK A01 T10131015  RH  100%=      5-min Rain = 0
KOES 090620Z 30005KT M01/M01 A303 RMK A01 T10121013  RH  100%=      5-min Rain = 0
KOES 090625Z 30005KT M01/M01 A303 RMK A01 T10121014  RH  100%=      5-min Rain = 0
KOES 090630Z 30005KT M01/M01 A303 RMK A01 T10131014  RH  100%=      5-min Rain = 0
KOES 090635Z 30005KT M01/M01 A303 RMK A01 T10131014  RH  100%=      5-min Rain = 0
KOES 090640Z 30006KT M01/M01 A303 RMK A01 T10131014  RH  100%=      5-min Rain = 0
KOES 090645Z 30006KT M01/M01 A303 RMK A01 T10131014  RH  100%=      5-min Rain = 0
KOES 090650Z 30006KT M01/M01 A303 RMK A01 T10131014  RH  100%=      5-min Rain = 0
KOES 090655Z 29006KT M01/M01 A303 RMK A01 T10131014  RH  100%=      5-min Rain = 0
KOES 090700Z 30006KT M01/M01 A303 RMK A01 T10131014  RH  100%=      5-min Rain = 0
KOES 090705Z 31006KT M01/M01 A303 RMK A01 T10131014  RH  100%=      5-min Rain = 0
KOES 090710Z 31006KT M01/M01 A3029 RMK A01 T10121013  RH  100%=      5-min Rain = 0
KOES 090715Z 32005KT M01/M01 A3029 RMK A01 T10121013  RH  100%=      5-min Rain = 0
KOES 090720Z 33006KT M01/M01 A3029 RMK A01 T10101012  RH  100%=      5-min Rain = 0
KOES 090725Z 33005KT M01/M01 A3029 RMK A01 T10101011  RH  100%=      5-min Rain = 0
KOES 090730Z 33005KT M01/M01 A3029 RMK A01 T10091011  RH  100%=      5-min Rain = 0
KOES 090735Z 33006KT M01/M01 A3029 RMK A01 T10091011  RH  100%=      5-min Rain = 0
KOES 090740Z 33006KT M01/M01 A3028 RMK A01 T10091011  RH  100%=      5-min Rain = 0
KOES 090745Z 33006KT M01/M01 A3028 RMK A01 T10091010  RH  100%=      5-min Rain = 0
KOES 090750Z 33005KT M01/M01 A3029 RMK A01 T10091010  RH  100%=      5-min Rain = 0
KOES 090755Z 34005KT M01/M01 A3029 RMK A01 T10091010  RH  100%=      5-min Rain = 0
KOES 090800Z 34006KT M01/M01 A3028 RMK A01 T10091011  RH  100%=      5-min Rain = 0
KOES 090805Z 34006KT M01/M01 A3028 RMK A01 T10101011  RH  100%=      5-min Rain = 0
KOES 090810Z 34005KT M01/M01 A3029 RMK A01 T10101011  RH  100%=      5-min Rain = 0
KOES 090815Z 34005KT M01/M01 A3028 RMK A01 T10101012  RH  100%=      5-min Rain = 0
KOES 090820Z 34005KT M01/M01 A3028 RMK A01 T10111012  RH  100%=      5-min Rain = 0
KOES 090825Z 35005KT M01/M01 A3028 RMK A01 T10111012  RH  100%=      5-min Rain = 0
KOES 090830Z 35005KT M01/M01 A3028 RMK A01 T10111012  RH  100%=      5-min Rain = 0
KOES 090835Z 35005KT M01/M01 A3028 RMK A01 T10111012  RH  100%=      5-min Rain = 0
KOES 090840Z 00005KT M01/M01 A3028 RMK A01 T10111012  RH  100%=      5-min Rain = 0
KOES 090845Z 00005KT M01/M01 A3028 RMK A01 T10111012  RH  100%=      5-min Rain = 0
KOES 090850Z 01005KT M01/M01 A3028 RMK A01 T10111012  RH  100%=      5-min Rain = 0
KOES 090855Z 01005KT M01/M01 A3028 RMK A01 T10121013  RH  100%=      5-min Rain = 0
KOES 090900Z 02005KT M01/M01 A3028 RMK A01 T10121013  RH  100%=      5-min Rain = 0
KOES 090905Z 01005KT M01/M01 A3028 RMK A01 T10111013  RH  100%=      5-min Rain = 0
KOES 090910Z 01006KT M01/M01 A3027 RMK A01 T10111013  RH  100%=      5-min Rain = 0
KOES 090915Z 01006KT M01/M01 A3028 RMK A01 T10121013  RH  100%=      5-min Rain = 0
KOES 090920Z 02006KT M01/M01 A3028 RMK A01 T10121014  RH  099%=      5-min Rain = 0
KOES 090925Z 02005KT M01/M02 A3028 RMK A01 T10131017  RH  098%=      5-min Rain = 0
KOES 090930Z 01006KT M01/M02 A3028 RMK A01 T10141018  RH  098%=      5-min Rain = 0
KOES 090935Z 01006KT M01/M02 A3028 RMK A01 T10141019  RH  097%=      5-min Rain = 0
KOES 090940Z 01006KT M01/M02 A3028 RMK A01 T10141022  RH  095%=      5-min Rain = 0
KOES 090945Z 00006KT M01/M02 A3028 RMK A01 T10141023  RH  094%=      5-min Rain = 0
KOES 090950Z 00006KT M01/M02 A3028 RMK A01 T10141024  RH  093%=      5-min Rain = 0
KOES 090955Z 00007KT M01/M03 A3028 RMK A01 T10141025  RH  093%=      5-min Rain = 0
KOES 091000Z 00007KT M01/M03 A3028 RMK A01 T10131025  RH  092%=      5-min Rain = 0
KOES 091005Z 01006KT M01/M03 A3028 RMK A01 T10131025  RH  092%=      5-min Rain = 0
KOES 091010Z 01006KT M01/M03 A3028 RMK A01 T10131026  RH  092%=      5-min Rain = 0
KOES 091015Z 01006KT M01/M03 A3028 RMK A01 T10131026  RH  092%=      5-min Rain = 0
KOES 091020Z 01006KT M01/M03 A3028 RMK A01 T10131026  RH  092%=      5-min Rain = 0
KOES 091025Z 01005KT M01/M03 A3028 RMK A01 T10131026  RH  092%=      5-min Rain = 0
KOES 091030Z 01005KT M01/M03 A3028 RMK A01 T10131026  RH  092%=      5-min Rain = 0
KOES 091035Z 00005KT M01/M03 A3028 RMK A01 T10141026  RH  092%=      5-min Rain = 0
KOES 091040Z 00006KT M01/M03 A3028 RMK A01 T10141026  RH  092%=      5-min Rain = 0
KOES 091045Z 00007KT M01/M03 A3028 RMK A01 T10131025  RH  092%=      5-min Rain = 0
KOES 091050Z 01007KT M01/M03 A3028 RMK A01 T10131026  RH  091%=      5-min Rain = 0
KOES 091055Z 02008KT M01/M03 A3028 RMK A01 T10131026  RH  091%=      5-min Rain = 0
KOES 091100Z 02007KT M01/M03 A3028 RMK A01 T10131027  RH  091%=      5-min Rain = 0
KOES 091105Z 01006KT M01/M03 A3029 RMK A01 T10141028  RH  091%=      5-min Rain = 0
KOES 091110Z 36005KT M02/M03 A3029 RMK A01 T10151029  RH  091%=      5-min Rain = 0
KOES 091115Z 34005KT M02/M03 A3029 RMK A01 T10161030  RH  091%=      5-min Rain = 0
KOES 091120Z 33006KT M02/M03 A3029 RMK A01 T10171031  RH  091%=      5-min Rain = 0
KOES 091125Z 34006KT M02/M03 A3029 RMK A01 T10181030  RH  091%=      5-min Rain = 0
KOES 091130Z 33006KT M02/M03 A3029 RMK A01 T10181031  RH  092%=      5-min Rain = 0
KOES 091135Z 33006KT M02/M03 A303 RMK A01 T10181030  RH  092%=      5-min Rain = 0
KOES 091140Z 33005KT M02/M03 A303 RMK A01 T10181030  RH  092%=      5-min Rain = 0
KOES 091145Z 32006KT M02/M03 A303 RMK A01 T10191032  RH  092%=      5-min Rain = 0
KOES 091150Z 32005KT M02/M03 A303 RMK A01 T10211034  RH  092%=      5-min Rain = 0
KOES 091155Z 32005KT M02/M04 A303 RMK A01 T10241036  RH  092%=      5-min Rain = 0
KOES 091200Z 33006KT M03/M04 A3031 RMK A01 T10251038  RH  092%=      5-min Rain = 0
KOES 091205Z 32004KT M03/M04 A3031 RMK A01 T10261038  RH  092%=      5-min Rain = 0
KOES 091210Z 32004KT M03/M04 A3031 RMK A01 T10281040  RH  092%=      5-min Rain = 0
KOES 091215Z 32004KT M03/M04 A3031 RMK A01 T10301042  RH  092%=      5-min Rain = 0
KOES 091220Z 33005KT M03/M04 A3032 RMK A01 T10311043  RH  092%=      5-min Rain = 0
KOES 091225Z 33005KT M03/M04 A3032 RMK A01 T10321043  RH  092%=      5-min Rain = 0
KOES 091230Z 33005KT M03/M04 A3032 RMK A01 T10321043  RH  092%=      5-min Rain = 0
KOES 091235Z 32005KT M03/M04 A3032 RMK A01 T10321043  RH  093%=      5-min Rain = 0
KOES 091240Z 32005KT M03/M04 A3032 RMK A01 T10321042  RH  093%=      5-min Rain = 0
KOES 091245Z 32005KT M03/M04 A3033 RMK A01 T10321042  RH  093%=      5-min Rain = 0
KOES 091250Z 32005KT M03/M04 A3033 RMK A01 T10321042  RH  093%=      5-min Rain = 0
KOES 091255Z 32005KT M03/M04 A3033 RMK A01 T10321042  RH  093%=      5-min Rain = 0
KOES 091300Z 32005KT M03/M04 A3033 RMK A01 T10311041  RH  093%=      5-min Rain = 0
KOES 091305Z 33005KT M03/M04 A3033 RMK A01 T10311041  RH  093%=      5-min Rain = 0
KOES 091310Z 32003KT M03/M04 A3033 RMK A01 T10311041  RH  093%=      5-min Rain = 0
KOES 091315Z 32003KT M03/M04 A3033 RMK A01 T10311041  RH  093%=      5-min Rain = 0
KOES 091320Z 33004KT M03/M04 A3033 RMK A01 T10301040  RH  094%=      5-min Rain = 0
KOES 091325Z 32004KT M03/M04 A3034 RMK A01 T10291038  RH  094%=      5-min Rain = 0
KOES 091330Z 33004KT M03/M04 A3034 RMK A01 T10291038  RH  094%=      5-min Rain = 0
KOES 091335Z 32004KT M03/M04 A3034 RMK A01 T10291038  RH  093%=      5-min Rain = 0
KOES 091340Z 32004KT M03/M04 A3034 RMK A01 T10291038  RH  093%=      5-min Rain = 0
KOES 091345Z 33004KT M03/M04 A3034 RMK A01 T10281038  RH  094%=      5-min Rain = 0
KOES 091350Z 33004KT M03/M04 A3034 RMK A01 T10271037  RH  094%=      5-min Rain = 0
KOES 091355Z 33005KT M03/M04 A3035 RMK A01 T10261036  RH  094%=      5-min Rain = 0
KOES 091400Z 33006KT M03/M04 A3035 RMK A01 T10261037  RH  093%=      5-min Rain = 0
KOES 091405Z 33006KT M03/M04 A3035 RMK A01 T10251037  RH  092%=      5-min Rain = 0
KOES 091410Z 33006KT M03/M04 A3035 RMK A01 T10251037  RH  092%=      5-min Rain = 0
KOES 091415Z 34005KT M02/M04 A3035 RMK A01 T10241037  RH  092%=      5-min Rain = 0
KOES 091420Z 34005KT M02/M04 A3035 RMK A01 T10231036  RH  091%=      5-min Rain = 0
KOES 091425Z 34006KT M02/M04 A3036 RMK A01 T10231036  RH  091%=      5-min Rain = 0
KOES 091430Z 34006KT M02/M04 A3036 RMK A01 T10221036  RH  091%=      5-min Rain = 0
KOES 091435Z 34006KT M02/M04 A3036 RMK A01 T10211035  RH  090%=      5-min Rain = 0
KOES 091440Z 33006KT M02/M03 A3036 RMK A01 T10191034  RH  090%=      5-min Rain = 0
KOES 091445Z 34006KT M02/M03 A3037 RMK A01 T10181033  RH  090%=      5-min Rain = 0
KOES 091450Z 34006KT M02/M03 A3036 RMK A01 T10171033  RH  089%=      5-min Rain = 0
KOES 091455Z 34006KT M02/M03 A3037 RMK A01 T10151031  RH  089%=      5-min Rain = 0
KOES 091500Z 33006KT M01/M03 A3037 RMK A01 T10141031  RH  089%=      5-min Rain = 0
KOES 091505Z 32005KT M01/M03 A3037 RMK A01 T10111029  RH  088%=      5-min Rain = 0
KOES 091510Z 32005KT M01/M03 A3037 RMK A01 T10081027  RH  088%=      5-min Rain = 0
KOES 091515Z 32004KT M01/M03 A3037 RMK A01 T10061025  RH  087%=      5-min Rain = 0
KOES 091520Z 32005KT M00/M02 A3037 RMK A01 T10031024  RH  086%=      5-min Rain = 0
KOES 091525Z 32006KT M00/M02 A3038 RMK A01 T10021024  RH  086%=      5-min Rain = 0
KOES 091530Z 32006KT 00/02 A3038 RMK A01 T00000-22  RH  086%=      5-min Rain = 0
KOES 091535Z 32005KT 00/M02 A3038 RMK A01 T00021021  RH  085%=      5-min Rain = 0
KOES 091540Z 33006KT 00/M02 A3039 RMK A01 T00031021  RH  084%=      5-min Rain = 0
KOES 091545Z 33006KT 00/M02 A3039 RMK A01 T00041021  RH  084%=      5-min Rain = 0
KOES 091550Z 33006KT 01/M02 A3039 RMK A01 T00051019  RH  084%=      5-min Rain = 0
KOES 091555Z 33006KT 01/M02 A3039 RMK A01 T00061019  RH  084%=      5-min Rain = 0
KOES 091600Z 33006KT 01/M02 A3039 RMK A01 T00071018  RH  084%=      5-min Rain = 0
KOES 091605Z 35005KT 01/M01 A3039 RMK A01 T00101014  RH  085%=      5-min Rain = 0.01
KOES 091610Z 35005KT 01/M01 A304 RMK A01 T00121013  RH  084%=      5-min Rain = 0
KOES 091615Z 34005KT 01/M01 A304 RMK A01 T00121014  RH  083%=      5-min Rain = 0
KOES 091620Z 34006KT 01/M01 A304 RMK A01 T00131013  RH  083%=      5-min Rain = 0
KOES 091625Z 34006KT 01/M02 A304 RMK A01 T00111015  RH  083%=      5-min Rain = 0
KOES 091630Z 34005KT 01/M01 A304 RMK A01 T00121013  RH  084%=      5-min Rain = 0
KOES 091635Z 35006KT 02/M01 A304 RMK A01 T00151009  RH  085%=      5-min Rain = 0
KOES 091640Z 35006KT 02/M01 A304 RMK A01 T00161007  RH  085%=      5-min Rain = 0
KOES 091645Z 35006KT 02/M01 A304 RMK A01 T00171008  RH  085%=      5-min Rain = 0
KOES 091650Z 35005KT 02/M01 A304 RMK A01 T00181006  RH  085%=      5-min Rain = 0
KOES 091655Z 35005KT 02/M01 A304 RMK A01 T00181006  RH  085%=      5-min Rain = 0
KOES 091700Z 00006KT 02/M01 A304 RMK A01 T00191005  RH  085%=      5-min Rain = 0
KOES 091705Z 01005KT 02/M00 A304 RMK A01 T00221002  RH  085%=      5-min Rain = 0
KOES 091710Z 36004KT 02/M01 A304 RMK A01 T00231005  RH  083%=      5-min Rain = 0
KOES 091715Z 00003KT 03/M00 A304 RMK A01 T00251004  RH  082%=      5-min Rain = 0
KOES 091720Z 01002KT 03/M00 A304 RMK A01 T00281002  RH  081%=      5-min Rain = 0
KOES 091725Z 01003KT 03/M00 A304 RMK A01 T00321001  RH  080%=      5-min Rain = 0
KOES 091730Z 01002KT 03/M00 A304 RMK A01 T00331003  RH  078%=      5-min Rain = 0
KOES 091735Z 00002KT 03/M00 A3039 RMK A01 T00341004  RH  077%=      5-min Rain = 0
KOES 091740Z 02003KT 04/M00 A3039 RMK A01 T00361003  RH  077%=      5-min Rain = 0
KOES 091745Z 02003KT 03/M01 A3039 RMK A01 T00341005  RH  076%=      5-min Rain = 0
KOES 091750Z 35004KT 04/00 A3039 RMK A01 T00370000  RH  078%=      5-min Rain = 0
KOES 091755Z 35003KT 04/M00 A3039 RMK A01 T00381003  RH  076%=      5-min Rain = 0
KOES 091800Z 35003KT 04/M00 A3039 RMK A01 T00391001  RH  076%=      5-min Rain = 0
KOES 091805Z 35003KT 04/M00 A3038 RMK A01 T00401003  RH  074%=      5-min Rain = 0
KOES 091810Z 35004KT 04/M00 A3038 RMK A01 T00421001  RH  075%=      5-min Rain = 0
KOES 091815Z 35004KT 04/M00 A3037 RMK A01 T00421002  RH  074%=      5-min Rain = 0
KOES 091820Z 00004KT 04/M00 A3037 RMK A01 T00441001  RH  073%=      5-min Rain = 0
KOES 091825Z 36004KT 05/00 A3037 RMK A01 T00460001  RH  074%=      5-min Rain = 0
KOES 091830Z 00004KT 05/00 A3037 RMK A01 T00500003  RH  073%=      5-min Rain = 0
KOES 091835Z 35004KT 05/00 A3036 RMK A01 T00500000  RH  071%=      5-min Rain = 0
KOES 091840Z 34005KT 05/M00 A3036 RMK A01 T00511001  RH  070%=      5-min Rain = 0
KOES 091845Z 36005KT 05/00 A3036 RMK A01 T00510000  RH  070%=      5-min Rain = 0
KOES 091850Z 35004KT 05/00 A3036 RMK A01 T005400-0  RH  069%=      5-min Rain = 0
KOES 091855Z 35004KT 05/M00 A3036 RMK A01 T00541004  RH  067%=      5-min Rain = 0
KOES 091900Z 35003KT 06/M01 A3036 RMK A01 T00551010  RH  064%=      5-min Rain = 0
KOES 091905Z 36002KT 06/M01 A3035 RMK A01 T00581009  RH  063%=      5-min Rain = 0
KOES 091910Z 01003KT 06/M01 A3035 RMK A01 T00611008  RH  062%=      5-min Rain = 0
KOES 091915Z 35005KT 06/M01 A3035 RMK A01 T00601013  RH  060%=      5-min Rain = 0
KOES 091920Z 01004KT 06/M02 A3035 RMK A01 T00601019  RH  058%=      5-min Rain = 0
KOES 091925Z 01004KT 06/M01 A3035 RMK A01 T00611013  RH  060%=      5-min Rain = 0
KOES 091930Z 00004KT 06/M01 A3034 RMK A01 T00611008  RH  062%=      5-min Rain = 0
KOES 091935Z 01002KT 06/M01 A3034 RMK A01 T00621012  RH  060%=      5-min Rain = 0
KOES 091940Z 01005KT 06/M00 A3034 RMK A01 T00631004  RH  063%=      5-min Rain = 0
KOES 091945Z 35003G8KT 06/M01 A3034 RMK A01 T00621007  RH  062%=      5-min Rain = 0
KOES 091950Z 35005KT 06/M01 A3034 RMK A01 T00641005  RH  062%=      5-min Rain = 0
KOES 091955Z 01004KT 06/M01 A3034 RMK A01 T00641007  RH  061%=      5-min Rain = 0
KOES 092000Z 34005KT 07/M01 A3033 RMK A01 T00651009  RH  060%=      5-min Rain = 0
KOES 092005Z 34005KT 07/M01 A3034 RMK A01 T00651012  RH  058%=      5-min Rain = 0
KOES 092010Z 34003KT 07/M02 A3034 RMK A01 T00661018  RH  056%=      5-min Rain = 0
KOES 092015Z 36004KT 07/M01 A3033 RMK A01 T00671010  RH  058%=      5-min Rain = 0
KOES 092020Z 00004G10KT 07/M01 A3033 RMK A01 T00671012  RH  058%=      5-min Rain = 0
KOES 092025Z 30006KT 07/M02 A3033 RMK A01 T00671021  RH  054%=      5-min Rain = 0
KOES 092030Z 33006KT 07/M01 A3033 RMK A01 T00671014  RH  057%=      5-min Rain = 0
KOES 092035Z 35003KT 07/M02 A3033 RMK A01 T00671015  RH  056%=      5-min Rain = 0
KOES 092040Z 35006KT 07/M01 A3033 RMK A01 T00681011  RH  058%=      5-min Rain = 0
KOES 092045Z 34006KT 07/M01 A3033 RMK A01 T00691007  RH  059%=      5-min Rain = 0
KOES 092050Z 33005KT 07/M02 A3033 RMK A01 T00681016  RH  056%=      5-min Rain = 0
KOES 092055Z 34006KT 07/M01 A3033 RMK A01 T00661014  RH  057%=      5-min Rain = 0
KOES 092100Z 33006KT 07/M01 A3033 RMK A01 T00661009  RH  059%=      5-min Rain = 0
KOES 092105Z 32007KT 07/M02 A3033 RMK A01 T00661016  RH  056%=      5-min Rain = 0
KOES 092110Z 33006KT 07/M02 A3033 RMK A01 T00661015  RH  057%=      5-min Rain = 0
KOES 092115Z 34006KT 07/M02 A3033 RMK A01 T00661016  RH  056%=      5-min Rain = 0
KOES 092120Z 32006KT 07/M02 A3033 RMK A01 T00661016  RH  056%=      5-min Rain = 0
KOES 092125Z 32006KT 07/M02 A3033 RMK A01 T00661022  RH  054%=      5-min Rain = 0
KOES 092130Z 32006KT 06/M02 A3033 RMK A01 T00641023  RH  054%=      5-min Rain = 0
KOES 092135Z 32006KT 06/M02 A3033 RMK A01 T00641023  RH  054%=      5-min Rain = 0
KOES 092140Z 34005KT 07/M02 A3033 RMK A01 T00651020  RH  055%=      5-min Rain = 0
KOES 092145Z 33005KT 07/M02 A3033 RMK A01 T00651019  RH  056%=      5-min Rain = 0
KOES 092150Z 34005KT 07/M01 A3033 RMK A01 T00651014  RH  058%=      5-min Rain = 0
KOES 092155Z 34005KT 06/M02 A3033 RMK A01 T00641017  RH  056%=      5-min Rain = 0
KOES 092200Z 34005KT 06/M01 A3033 RMK A01 T00641014  RH  058%=      5-min Rain = 0
KOES 092205Z 35006KT 06/M01 A3033 RMK A01 T00641010  RH  060%=      5-min Rain = 0
KOES 092210Z 35006KT 06/M01 A3033 RMK A01 T00641009  RH  060%=      5-min Rain = 0
KOES 092215Z 35007KT 06/M01 A3033 RMK A01 T00631009  RH  061%=      5-min Rain = 0
KOES 092220Z 35005KT 06/M01 A3033 RMK A01 T00621009  RH  061%=      5-min Rain = 0
KOES 092225Z 35005KT 06/M01 A3033 RMK A01 T00621011  RH  060%=      5-min Rain = 0
KOES 092230Z 35005KT 06/M01 A3033 RMK A01 T00611011  RH  061%=      5-min Rain = 0
KOES 092235Z 01006KT 06/M01 A3033 RMK A01 T00611010  RH  061%=      5-min Rain = 0
KOES 092240Z 01005KT 06/M02 A3033 RMK A01 T00591017  RH  059%=      5-min Rain = 0
KOES 092245Z 00006KT 06/M01 A3034 RMK A01 T00581014  RH  061%=      5-min Rain = 0
KOES 092250Z 00006KT 06/M01 A3034 RMK A01 T00561014  RH  061%=      5-min Rain = 0
KOES 092255Z 00006KT 05/M01 A3034 RMK A01 T00541012  RH  063%=      5-min Rain = 0
KOES 092300Z 36007KT 05/M01 A3034 RMK A01 T00531011  RH  064%=      5-min Rain = 0
KOES 092305Z 01008KT 05/M01 A3034 RMK A01 T00501013  RH  064%=      5-min Rain = 0
KOES 092310Z 00007KT 05/M01 A3034 RMK A01 T00481013  RH  065%=      5-min Rain = 0
KOES 092315Z 00006KT 05/M01 A3034 RMK A01 T00461008  RH  068%=      5-min Rain = 0
KOES 092320Z 01007KT 04/M01 A3034 RMK A01 T00441011  RH  068%=      5-min Rain = 0
KOES 092325Z 01006KT 04/M01 A3034 RMK A01 T00421012  RH  069%=      5-min Rain = 0
KOES 092330Z 01006KT 04/M01 A3034 RMK A01 T00391013  RH  069%=      5-min Rain = 0
KOES 092335Z 01006KT 04/M01 A3034 RMK A01 T00371011  RH  071%=      5-min Rain = 0
KOES 092340Z 01006KT 03/M01 A3034 RMK A01 T00341012  RH  073%=      5-min Rain = 0
KOES 092345Z 00006KT 03/M01 A3034 RMK A01 T00321011  RH  074%=      5-min Rain = 0
KOES 092350Z 01006KT 03/M01 A3034 RMK A01 T00301010  RH  076%=      5-min Rain = 0
KOES 092355Z 01005KT 03/M01 A3034 RMK A01 T00281009  RH  078%=      5-min Rain = 0
KOES 100000Z 01005KT 03/M01 A3035 RMK A01 T00261008  RH  079%=      5-min Rain = 0
KOES 100005Z 02005KT 02/M01 A3035 RMK A01 T00241009  RH  080%=      5-min Rain = 0
KOES 100010Z 01005KT 02/M01 A3035 RMK A01 T00221010  RH  080%=      5-min Rain = 0
KOES 100015Z 01005KT 02/M01 A3035 RMK A01 T00211012  RH  080%=      5-min Rain = 0
KOES 100020Z 01005KT 02/M01 A3035 RMK A01 T00191013  RH  080%=      5-min Rain = 0
KOES 100025Z 01005KT 02/M01 A3035 RMK A01 T00181013  RH  081%=      5-min Rain = 0
KOES 100030Z 01005KT 02/M01 A3035 RMK A01 T00161013  RH  082%=      5-min Rain = 0
KOES 100035Z 01004KT 02/M01 A3035 RMK A01 T00151012  RH  083%=      5-min Rain = 0
KOES 100040Z 01003KT 01/M01 A3035 RMK A01 T00141013  RH  083%=      5-min Rain = 0
KOES 100045Z 01003KT 01/M01 A3035 RMK A01 T00121013  RH  084%=      5-min Rain = 0
KOES 100050Z 01004KT 01/M01 A3035 RMK A01 T00111013  RH  084%=      5-min Rain = 0
KOES 100055Z 01005KT 01/M01 A3035 RMK A01 T00101014  RH  085%=      5-min Rain = 0
KOES 100100Z 01004KT 01/M02 A3035 RMK A01 T00091015  RH  085%=      5-min Rain = 0
KOES 100105Z 02003KT 01/M02 A3035 RMK A01 T00091015  RH  085%=      5-min Rain = 0
KOES 100110Z 03001KT 01/M02 A3035 RMK A01 T00081015  RH  085%=      5-min Rain = 0
KOES 100115Z 01001KT 01/M02 A3035 RMK A01 T00071017  RH  085%=      5-min Rain = 0
KOES 100120Z 03000KT 01/M02 A3035 RMK A01 T00051019  RH  085%=      5-min Rain = 0
KOES 100125Z 18001KT 00/M02 A3035 RMK A01 T00011022  RH  085%=      5-min Rain = 0
KOES 100130Z 18000KT 00/02 A3035 RMK A01 T00000-23  RH  085%=      5-min Rain = 0
KOES 100135Z 18000KT 00/02 A3035 RMK A01 T00000-22  RH  086%=      5-min Rain = 0
KOES 100140Z 00000KT 00/M02 A3036 RMK A01 T00021020  RH  086%=      5-min Rain = 0
KOES 100145Z 00000KT 00/M02 A3036 RMK A01 T00021021  RH  085%=      5-min Rain = 0
KOES 100150Z 30001KT 00/M02 A3036 RMK A01 T00021022  RH  084%=      5-min Rain = 0
KOES 100155Z 25001KT 00/M02 A3036 RMK A01 T00011024  RH  084%=      5-min Rain = 0
KOES 100200Z 23002KT M00/M03 A3036 RMK A01 T10031026  RH  085%=      5-min Rain = 0
KOES 100205Z 23001KT M01/M03 A3036 RMK A01 T10061027  RH  087%=      5-min Rain = 0
KOES 100210Z 29001KT M01/M02 A3037 RMK A01 T10071024  RH  088%=      5-min Rain = 0
KOES 100215Z 30001KT M01/M02 A3037 RMK A01 T10061022  RH  089%=      5-min Rain = 0
KOES 100220Z 27002KT M00/M02 A3037 RMK A01 T10041021  RH  089%=      5-min Rain = 0
KOES 100225Z 31002KT M01/M02 A3037 RMK A01 T10061024  RH  089%=      5-min Rain = 0
KOES 100230Z 32003KT M01/M02 A3037 RMK A01 T10071023  RH  089%=      5-min Rain = 0
KOES 100235Z 33004KT M01/M02 A3038 RMK A01 T10071022  RH  090%=      5-min Rain = 0
KOES 100240Z 33004KT M01/M02 A3038 RMK A01 T10071021  RH  091%=      5-min Rain = 0
KOES 100245Z 33004KT M01/M02 A3038 RMK A01 T10071021  RH  091%=      5-min Rain = 0
KOES 100250Z 32004KT M01/M02 A3038 RMK A01 T10071021  RH  091%=      5-min Rain = 0
KOES 100255Z 32004KT M01/M02 A3037 RMK A01 T10071021  RH  091%=      5-min Rain = 0
KOES 100300Z 33004KT M01/M02 A3037 RMK A01 T10071020  RH  092%=      5-min Rain = 0
KOES 100305Z 33005KT M00/M02 A3038 RMK A01 T10041016  RH  092%=      5-min Rain = 0
KOES 100310Z 33005KT M00/M02 A3037 RMK A01 T10031016  RH  091%=      5-min Rain = 0
KOES 100315Z 33005KT M00/M02 A3038 RMK A01 T10031016  RH  091%=      5-min Rain = 0
KOES 100320Z 34005KT M00/M02 A3038 RMK A01 T10021015  RH  092%=      5-min Rain = 0
KOES 100325Z 34005KT M00/M02 A3038 RMK A01 T10021015  RH  092%=      5-min Rain = 0
KOES 100330Z 34004KT M00/M02 A3038 RMK A01 T10021015  RH  091%=      5-min Rain = 0
KOES 100335Z 34004KT M00/M02 A3038 RMK A01 T10021017  RH  091%=      5-min Rain = 0
KOES 100340Z 33004KT M00/M02 A3038 RMK A01 T10031018  RH  091%=      5-min Rain = 0
KOES 100345Z 33004KT M01/M02 A3038 RMK A01 T10051019  RH  091%=      5-min Rain = 0
KOES 100350Z 32004KT M01/M02 A3038 RMK A01 T10061020  RH  091%=      5-min Rain = 0
KOES 100355Z 31004KT M01/M02 A3038 RMK A01 T10071021  RH  091%=      5-min Rain = 0
KOES 100400Z 32005KT M01/M02 A3038 RMK A01 T10071021  RH  091%=      5-min Rain = 0
KOES 100405Z 31005KT M01/M02 A3038 RMK A01 T10071021  RH  091%=      5-min Rain = 0
KOES 100410Z 32005KT M01/M02 A3038 RMK A01 T10071022  RH  090%=      5-min Rain = 0
KOES 100415Z 32005KT M01/M02 A3038 RMK A01 T10081023  RH  090%=      5-min Rain = 0
KOES 100420Z 31005KT M01/M03 A3038 RMK A01 T10101025  RH  090%=      5-min Rain = 0
KOES 100425Z 31004KT M01/M03 A3038 RMK A01 T10121027  RH  090%=      5-min Rain = 0
KOES 100430Z 30004KT M01/M03 A3038 RMK A01 T10141029  RH  090%=      5-min Rain = 0
KOES 100435Z 29004KT M02/M03 A3038 RMK A01 T10161031  RH  091%=      5-min Rain = 0
KOES 100440Z 29004KT M02/M03 A3038 RMK A01 T10171030  RH  092%=      5-min Rain = 0
KOES 100445Z 29005KT M02/M03 A3038 RMK A01 T10181030  RH  092%=      5-min Rain = 0
KOES 100450Z 29005KT M02/M03 A3038 RMK A01 T10181029  RH  092%=      5-min Rain = 0
KOES 100455Z 30006KT M02/M02 A3038 RMK A01 T10151024  RH  095%=      5-min Rain = 0
KOES 100500Z 30007KT M01/M02 A3038 RMK A01 T10111018  RH  096%=      5-min Rain = 0
KOES 100505Z 30007KT M01/M02 A3038 RMK A01 T10101021  RH  093%=      5-min Rain = 0
KOES 100510Z 30007KT M01/M02 A3038 RMK A01 T10091021  RH  092%=      5-min Rain = 0
KOES 100515Z 30007KT M01/M02 A3038 RMK A01 T10091022  RH  091%=      5-min Rain = 0
KOES 100520Z 30007KT M01/M02 A3038 RMK A01 T10091022  RH  091%=      5-min Rain = 0
KOES 100525Z 30007KT M01/M02 A3038 RMK A01 T10091023  RH  091%=      5-min Rain = 0
KOES 100530Z 30007KT M01/M02 A3038 RMK A01 T10091023  RH  091%=      5-min Rain = 0
KOES 100535Z 30007KT M01/M02 A3038 RMK A01 T10101024  RH  091%=      5-min Rain = 0
KOES 100540Z 30007KT M01/M02 A3038 RMK A01 T10111024  RH  092%=      5-min Rain = 0
KOES 100545Z 29007KT M01/M02 A3038 RMK A01 T10111024  RH  092%=      5-min Rain = 0
KOES 100550Z 29007KT M01/M03 A3038 RMK A01 T10121025  RH  092%=      5-min Rain = 0
KOES 100555Z 30007KT M01/M02 A3038 RMK A01 T10121024  RH  092%=      5-min Rain = 0

Page generated in 0.019 seconds.